sensor_id;sensor_type;location;lat;lon;timestamp;temperature;humidity
5344;DHT22;2694;48.950;8.970;2022-08-01T00:01:37;22.40;90.20
5344;DHT22;2694;48.950;8.970;2022-08-01T00:04:04;22.40;90.30
5344;DHT22;2694;48.950;8.970;2022-08-01T00:06:33;22.30;90.50
5344;DHT22;2694;48.950;8.970;2022-08-01T00:11:27;22.40;90.60
5344;DHT22;2694;48.950;8.970;2022-08-01T00:16:22;22.50;90.40
5344;DHT22;2694;48.950;8.970;2022-08-01T00:18:49;22.40;90.50
5344;DHT22;2694;48.950;8.970;2022-08-01T00:21:16;22.40;90.70
5344;DHT22;2694;48.950;8.970;2022-08-01T00:23:45;22.30;91.00
5344;DHT22;2694;48.950;8.970;2022-08-01T00:26:12;22.10;91.10
5344;DHT22;2694;48.950;8.970;2022-08-01T00:28:39;21.80;91.60
5344;DHT22;2694;48.950;8.970;2022-08-01T00:31:06;21.80;92.10
5344;DHT22;2694;48.950;8.970;2022-08-01T00:33:33;21.80;92.30
5344;DHT22;2694;48.950;8.970;2022-08-01T00:36:00;21.70;92.40
5344;DHT22;2694;48.950;8.970;2022-08-01T00:38:27;21.20;93.20
5344;DHT22;2694;48.950;8.970;2022-08-01T00:43:23;21.40;93.60
5344;DHT22;2694;48.950;8.970;2022-08-01T00:48:17;21.50;93.60
5344;DHT22;2694;48.950;8.970;2022-08-01T00:53:11;22.00;93.20
5344;DHT22;2694;48.950;8.970;2022-08-01T00:55:38;22.00;93.10
5344;DHT22;2694;48.950;8.970;2022-08-01T00:58:06;22.00;92.90
5344;DHT22;2694;48.950;8.970;2022-08-01T01:00:35;22.20;92.90
5344;DHT22;2694;48.950;8.970;2022-08-01T01:03:03;22.20;92.60
5344;DHT22;2694;48.950;8.970;2022-08-01T01:05:33;22.00;92.80
5344;DHT22;2694;48.950;8.970;2022-08-01T01:08:04;22.00;93.00
5344;DHT22;2694;48.950;8.970;2022-08-01T01:10:38;21.90;93.10
5344;DHT22;2694;48.950;8.970;2022-08-01T01:13:11;22.00;93.20
5344;DHT22;2694;48.950;8.970;2022-08-01T01:15:43;22.00;93.30
5344;DHT22;2694;48.950;8.970;2022-08-01T01:18:16;22.00;93.20
5344;DHT22;2694;48.950;8.970;2022-08-01T01:20:46;22.00;93.10
5344;DHT22;2694;48.950;8.970;2022-08-01T01:26:04;21.80;93.40
5344;DHT22;2694;48.950;8.970;2022-08-01T01:28:40;21.70;93.70
5344;DHT22;2694;48.950;8.970;2022-08-01T01:31:10;21.50;93.80
5344;DHT22;2694;48.950;8.970;2022-08-01T01:33:40;21.40;94.20
5344;DHT22;2694;48.950;8.970;2022-08-01T01:36:09;21.80;94.00
5344;DHT22;2694;48.950;8.970;2022-08-01T01:38:42;21.90;93.60
5344;DHT22;2694;48.950;8.970;2022-08-01T01:41:11;22.10;93.50
5344;DHT22;2694;48.950;8.970;2022-08-01T01:43:40;22.00;93.60
5344;DHT22;2694;48.950;8.970;2022-08-01T01:46:09;21.90;93.70
5344;DHT22;2694;48.950;8.970;2022-08-01T01:48:38;21.90;93.80
5344;DHT22;2694;48.950;8.970;2022-08-01T01:53:35;21.80;94.10
5344;DHT22;2694;48.950;8.970;2022-08-01T01:56:03;21.80;94.10
5344;DHT22;2694;48.950;8.970;2022-08-01T01:58:32;21.70;94.20
5344;DHT22;2694;48.950;8.970;2022-08-01T02:01:01;21.60;94.50
5344;DHT22;2694;48.950;8.970;2022-08-01T02:05:58;21.50;94.80
5344;DHT22;2694;48.950;8.970;2022-08-01T02:08:25;21.40;95.10
5344;DHT22;2694;48.950;8.970;2022-08-01T02:10:54;21.40;95.50
5344;DHT22;2694;48.950;8.970;2022-08-01T02:13:53;21.40;95.70
5344;DHT22;2694;48.950;8.970;2022-08-01T02:16:22;21.40;95.60
5344;DHT22;2694;48.950;8.970;2022-08-01T02:18:51;21.40;95.90
5344;DHT22;2694;48.950;8.970;2022-08-01T02:21:23;21.20;96.00
5344;DHT22;2694;48.950;8.970;2022-08-01T02:26:19;21.50;95.90
5344;DHT22;2694;48.950;8.970;2022-08-01T02:31:21;21.50;95.80
5344;DHT22;2694;48.950;8.970;2022-08-01T02:33:55;21.60;95.90
5344;DHT22;2694;48.950;8.970;2022-08-01T02:36:26;21.60;95.80
5344;DHT22;2694;48.950;8.970;2022-08-01T02:38:56;21.60;96.00
5344;DHT22;2694;48.950;8.970;2022-08-01T02:43:55;21.50;96.00
5344;DHT22;2694;48.950;8.970;2022-08-01T02:46:27;21.60;96.10
5344;DHT22;2694;48.950;8.970;2022-08-01T02:49:00;21.60;96.00
5344;DHT22;2694;48.950;8.970;2022-08-01T02:53:59;21.40;96.00
5344;DHT22;2694;48.950;8.970;2022-08-01T02:56:29;21.40;96.30
5344;DHT22;2694;48.950;8.970;2022-08-01T02:59:03;21.40;96.50
5344;DHT22;2694;48.950;8.970;2022-08-01T03:01:32;21.10;96.80
5344;DHT22;2694;48.950;8.970;2022-08-01T03:04:03;21.00;97.10
5344;DHT22;2694;48.950;8.970;2022-08-01T03:11:26;20.80;97.80
5344;DHT22;2694;48.950;8.970;2022-08-01T03:16:23;21.10;97.60
5344;DHT22;2694;48.950;8.970;2022-08-01T03:21:23;21.00;97.60
5344;DHT22;2694;48.950;8.970;2022-08-01T03:23:50;20.80;98.00
5344;DHT22;2694;48.950;8.970;2022-08-01T03:28:52;20.60;98.60
5344;DHT22;2694;48.950;8.970;2022-08-01T03:31:22;20.50;99.20
5344;DHT22;2694;48.950;8.970;2022-08-01T03:33:50;20.50;99.20
5344;DHT22;2694;48.950;8.970;2022-08-01T03:36:23;20.60;99.00
5344;DHT22;2694;48.950;8.970;2022-08-01T03:38:54;20.50;99.20
5344;DHT22;2694;48.950;8.970;2022-08-01T03:41:24;20.50;99.30
5344;DHT22;2694;48.950;8.970;2022-08-01T03:44:06;20.50;99.40
5344;DHT22;2694;48.950;8.970;2022-08-01T03:46:39;20.80;99.10
5344;DHT22;2694;48.950;8.970;2022-08-01T03:49:14;20.90;98.80
5344;DHT22;2694;48.950;8.970;2022-08-01T03:54:14;21.10;98.60
5344;DHT22;2694;48.950;8.970;2022-08-01T03:56:44;21.10;98.60
5344;DHT22;2694;48.950;8.970;2022-08-01T03:59:14;20.80;99.80
5344;DHT22;2694;48.950;8.970;2022-08-01T04:01:41;20.70;99.90
5344;DHT22;2694;48.950;8.970;2022-08-01T04:04:08;20.50;99.90
5344;DHT22;2694;48.950;8.970;2022-08-01T04:09:07;20.60;99.90
5344;DHT22;2694;48.950;8.970;2022-08-01T04:11:34;20.30;99.90
5344;DHT22;2694;48.950;8.970;2022-08-01T04:16:29;20.30;99.90
5344;DHT22;2694;48.950;8.970;2022-08-01T04:18:55;20.50;99.90
5344;DHT22;2694;48.950;8.970;2022-08-01T04:21:24;20.60;99.90
5344;DHT22;2694;48.950;8.970;2022-08-01T04:23:54;20.90;99.90
5344;DHT22;2694;48.950;8.970;2022-08-01T04:26:24;20.70;99.90
5344;DHT22;2694;48.950;8.970;2022-08-01T04:28:52;20.60;99.90
5344;DHT22;2694;48.950;8.970;2022-08-01T04:31:21;20.40;99.90
5344;DHT22;2694;48.950;8.970;2022-08-01T04:33:53;20.40;99.90
5344;DHT22;2694;48.950;8.970;2022-08-01T04:38:54;20.80;99.90
5344;DHT22;2694;48.950;8.970;2022-08-01T04:41:24;20.60;99.90
5344;DHT22;2694;48.950;8.970;2022-08-01T04:43:51;20.60;99.90
5344;DHT22;2694;48.950;8.970;2022-08-01T04:46:20;20.40;99.90
5344;DHT22;2694;48.950;8.970;2022-08-01T04:48:47;20.60;99.90
5344;DHT22;2694;48.950;8.970;2022-08-01T04:51:15;20.80;99.90
5344;DHT22;2694;48.950;8.970;2022-08-01T04:53:44;20.80;99.90
5344;DHT22;2694;48.950;8.970;2022-08-01T04:56:12;20.80;99.90
5344;DHT22;2694;48.950;8.970;2022-08-01T04:58:41;20.80;99.90
5344;DHT22;2694;48.950;8.970;2022-08-01T05:01:08;21.00;99.90
5344;DHT22;2694;48.950;8.970;2022-08-01T05:03:35;21.10;99.90
5344;DHT22;2694;48.950;8.970;2022-08-01T05:06:02;21.30;99.90
5344;DHT22;2694;48.950;8.970;2022-08-01T05:08:30;21.40;99.90
5344;DHT22;2694;48.950;8.970;2022-08-01T05:10:56;21.60;99.90
5344;DHT22;2694;48.950;8.970;2022-08-01T05:13:23;21.60;99.90
5344;DHT22;2694;48.950;8.970;2022-08-01T05:15:52;21.40;99.90
5344;DHT22;2694;48.950;8.970;2022-08-01T05:18:19;21.20;99.90
5344;DHT22;2694;48.950;8.970;2022-08-01T05:20:47;21.30;99.90
5344;DHT22;2694;48.950;8.970;2022-08-01T05:23:14;21.20;99.90
5344;DHT22;2694;48.950;8.970;2022-08-01T05:25:40;21.10;99.90
5344;DHT22;2694;48.950;8.970;2022-08-01T05:28:07;21.30;99.90
5344;DHT22;2694;48.950;8.970;2022-08-01T05:30:34;21.40;99.90
5344;DHT22;2694;48.950;8.970;2022-08-01T05:35:31;21.60;99.90
5344;DHT22;2694;48.950;8.970;2022-08-01T05:37:57;21.80;99.90
5344;DHT22;2694;48.950;8.970;2022-08-01T05:40:24;21.90;99.90
5344;DHT22;2694;48.950;8.970;2022-08-01T05:42:51;21.90;99.90
5344;DHT22;2694;48.950;8.970;2022-08-01T05:47:45;22.30;99.90
5344;DHT22;2694;48.950;8.970;2022-08-01T05:50:13;22.40;99.90
5344;DHT22;2694;48.950;8.970;2022-08-01T05:52:40;22.50;99.90
5344;DHT22;2694;48.950;8.970;2022-08-01T05:57:35;22.90;99.90
5344;DHT22;2694;48.950;8.970;2022-08-01T06:00:02;23.00;99.90
5344;DHT22;2694;48.950;8.970;2022-08-01T06:02:29;23.10;99.90
5344;DHT22;2694;48.950;8.970;2022-08-01T06:07:25;23.50;99.90
5344;DHT22;2694;48.950;8.970;2022-08-01T06:09:52;23.50;99.90
5344;DHT22;2694;48.950;8.970;2022-08-01T06:12:18;23.60;99.80
5344;DHT22;2694;48.950;8.970;2022-08-01T06:17:13;24.10;99.60
5344;DHT22;2694;48.950;8.970;2022-08-01T06:22:08;24.60;98.90
5344;DHT22;2694;48.950;8.970;2022-08-01T06:24:36;24.70;99.20
5344;DHT22;2694;48.950;8.970;2022-08-01T06:27:03;24.70;99.70
5344;DHT22;2694;48.950;8.970;2022-08-01T06:29:30;24.70;99.20
5344;DHT22;2694;48.950;8.970;2022-08-01T06:31:57;24.80;99.00
5344;DHT22;2694;48.950;8.970;2022-08-01T06:34:24;24.90;98.90
5344;DHT22;2694;48.950;8.970;2022-08-01T06:36:51;25.00;99.00
5344;DHT22;2694;48.950;8.970;2022-08-01T06:44:14;25.20;97.90
5344;DHT22;2694;48.950;8.970;2022-08-01T06:46:40;25.60;97.60
5344;DHT22;2694;48.950;8.970;2022-08-01T06:49:07;25.80;97.40
5344;DHT22;2694;48.950;8.970;2022-08-01T06:51:34;26.00;97.30
5344;DHT22;2694;48.950;8.970;2022-08-01T06:56:28;26.00;96.70
5344;DHT22;2694;48.950;8.970;2022-08-01T06:58:56;26.00;96.80
5344;DHT22;2694;48.950;8.970;2022-08-01T07:03:53;25.60;97.10
5344;DHT22;2694;48.950;8.970;2022-08-01T07:06:20;25.50;97.20
5344;DHT22;2694;48.950;8.970;2022-08-01T07:11:14;25.30;97.30
5344;DHT22;2694;48.950;8.970;2022-08-01T07:13:41;25.50;97.60
5344;DHT22;2694;48.950;8.970;2022-08-01T07:16:09;25.70;97.10
5344;DHT22;2694;48.950;8.970;2022-08-01T07:18:36;25.70;97.00
5344;DHT22;2694;48.950;8.970;2022-08-01T07:21:03;26.00;97.20
5344;DHT22;2694;48.950;8.970;2022-08-01T07:25:57;26.50;96.30
5344;DHT22;2694;48.950;8.970;2022-08-01T07:28:24;27.30;95.60
5344;DHT22;2694;48.950;8.970;2022-08-01T07:30:51;27.70;94.30
5344;DHT22;2694;48.950;8.970;2022-08-01T07:33:19;28.20;93.70
5344;DHT22;2694;48.950;8.970;2022-08-01T07:35:47;28.20;92.70
5344;DHT22;2694;48.950;8.970;2022-08-01T07:38:14;27.70;93.20
5344;DHT22;2694;48.950;8.970;2022-08-01T07:40:42;27.10;93.70
5344;DHT22;2694;48.950;8.970;2022-08-01T07:43:09;26.70;94.70
5344;DHT22;2694;48.950;8.970;2022-08-01T07:48:04;26.30;94.90
5344;DHT22;2694;48.950;8.970;2022-08-01T07:50:33;26.20;95.20
5344;DHT22;2694;48.950;8.970;2022-08-01T07:55:28;26.40;95.90
5344;DHT22;2694;48.950;8.970;2022-08-01T07:57:54;27.10;95.10
5344;DHT22;2694;48.950;8.970;2022-08-01T08:00:21;27.80;94.10
5344;DHT22;2694;48.950;8.970;2022-08-01T08:02:48;28.10;93.50
5344;DHT22;2694;48.950;8.970;2022-08-01T08:05:15;28.40;92.70
5344;DHT22;2694;48.950;8.970;2022-08-01T08:07:43;28.70;92.20
5344;DHT22;2694;48.950;8.970;2022-08-01T08:12:37;28.60;92.40
5344;DHT22;2694;48.950;8.970;2022-08-01T08:15:04;28.90;92.10
5344;DHT22;2694;48.950;8.970;2022-08-01T08:19:59;28.70;92.00
5344;DHT22;2694;48.950;8.970;2022-08-01T08:22:26;28.90;92.30
5344;DHT22;2694;48.950;8.970;2022-08-01T08:24:54;29.10;91.80
5344;DHT22;2694;48.950;8.970;2022-08-01T08:27:21;29.30;91.50
5344;DHT22;2694;48.950;8.970;2022-08-01T08:29:47;29.30;91.30
5344;DHT22;2694;48.950;8.970;2022-08-01T08:32:14;29.80;90.70
5344;DHT22;2694;48.950;8.970;2022-08-01T08:37:08;29.10;91.10
5344;DHT22;2694;48.950;8.970;2022-08-01T08:39:35;29.00;91.10
5344;DHT22;2694;48.950;8.970;2022-08-01T08:42:06;29.60;91.00
5344;DHT22;2694;48.950;8.970;2022-08-01T08:44:33;29.70;90.30
5344;DHT22;2694;48.950;8.970;2022-08-01T08:47:02;30.00;90.10
5344;DHT22;2694;48.950;8.970;2022-08-01T08:49:30;30.30;89.10
5344;DHT22;2694;48.950;8.970;2022-08-01T08:51:59;30.70;88.50
5344;DHT22;2694;48.950;8.970;2022-08-01T08:54:27;30.40;89.00
5344;DHT22;2694;48.950;8.970;2022-08-01T08:56:55;30.30;88.60
5344;DHT22;2694;48.950;8.970;2022-08-01T08:59:23;29.70;90.10
5344;DHT22;2694;48.950;8.970;2022-08-01T09:01:51;28.80;90.30
5344;DHT22;2694;48.950;8.970;2022-08-01T09:04:20;29.20;91.00
5344;DHT22;2694;48.950;8.970;2022-08-01T09:06:47;29.60;90.40
5344;DHT22;2694;48.950;8.970;2022-08-01T09:09:14;30.00;88.70
5344;DHT22;2694;48.950;8.970;2022-08-01T09:11:41;29.70;88.70
5344;DHT22;2694;48.950;8.970;2022-08-01T09:14:10;29.80;89.70
5344;DHT22;2694;48.950;8.970;2022-08-01T09:16:41;30.20;88.60
5344;DHT22;2694;48.950;8.970;2022-08-01T09:19:11;31.10;86.50
5344;DHT22;2694;48.950;8.970;2022-08-01T09:21:38;30.60;86.60
5344;DHT22;2694;48.950;8.970;2022-08-01T09:24:13;30.70;86.20
5344;DHT22;2694;48.950;8.970;2022-08-01T09:26:40;31.30;85.60
5344;DHT22;2694;48.950;8.970;2022-08-01T09:29:16;31.50;84.00
5344;DHT22;2694;48.950;8.970;2022-08-01T09:31:45;30.70;84.50
5344;DHT22;2694;48.950;8.970;2022-08-01T09:34:14;29.70;86.90
5344;DHT22;2694;48.950;8.970;2022-08-01T09:36:45;29.80;89.50
5344;DHT22;2694;48.950;8.970;2022-08-01T09:39:17;30.70;86.50
5344;DHT22;2694;48.950;8.970;2022-08-01T09:41:45;30.70;85.50
5344;DHT22;2694;48.950;8.970;2022-08-01T09:44:12;30.40;85.90
5344;DHT22;2694;48.950;8.970;2022-08-01T09:46:51;30.50;86.00
5344;DHT22;2694;48.950;8.970;2022-08-01T09:49:28;30.10;86.00
5344;DHT22;2694;48.950;8.970;2022-08-01T09:51:57;29.70;87.90
5344;DHT22;2694;48.950;8.970;2022-08-01T09:54:31;30.40;85.90
5344;DHT22;2694;48.950;8.970;2022-08-01T09:57:12;31.00;84.50
5344;DHT22;2694;48.950;8.970;2022-08-01T09:59:41;31.30;82.80
5344;DHT22;2694;48.950;8.970;2022-08-01T10:02:10;31.30;82.30
5344;DHT22;2694;48.950;8.970;2022-08-01T10:04:47;30.70;82.80
5344;DHT22;2694;48.950;8.970;2022-08-01T10:07:15;30.90;84.40
5344;DHT22;2694;48.950;8.970;2022-08-01T10:12:11;32.00;80.50
5344;DHT22;2694;48.950;8.970;2022-08-01T10:14:39;32.40;79.70
5344;DHT22;2694;48.950;8.970;2022-08-01T10:17:08;32.90;80.00
5344;DHT22;2694;48.950;8.970;2022-08-01T10:19:37;33.00;78.30
5344;DHT22;2694;48.950;8.970;2022-08-01T10:22:08;32.30;77.70
5344;DHT22;2694;48.950;8.970;2022-08-01T10:24:37;31.80;78.70
5344;DHT22;2694;48.950;8.970;2022-08-01T10:27:06;31.80;79.30
5344;DHT22;2694;48.950;8.970;2022-08-01T10:29:37;32.20;78.30
5344;DHT22;2694;48.950;8.970;2022-08-01T10:32:06;32.60;78.20
5344;DHT22;2694;48.950;8.970;2022-08-01T10:34:36;32.60;77.10
5344;DHT22;2694;48.950;8.970;2022-08-01T10:37:04;31.80;78.00
5344;DHT22;2694;48.950;8.970;2022-08-01T10:44:27;31.00;80.20
5344;DHT22;2694;48.950;8.970;2022-08-01T10:46:59;30.90;80.60
5344;DHT22;2694;48.950;8.970;2022-08-01T10:49:30;31.20;80.00
5344;DHT22;2694;48.950;8.970;2022-08-01T10:52:02;31.50;79.50
5344;DHT22;2694;48.950;8.970;2022-08-01T10:54:38;31.20;78.10
5344;DHT22;2694;48.950;8.970;2022-08-01T10:57:05;30.80;79.30
5344;DHT22;2694;48.950;8.970;2022-08-01T10:59:32;31.00;80.20
5344;DHT22;2694;48.950;8.970;2022-08-01T11:02:01;31.50;78.60
5344;DHT22;2694;48.950;8.970;2022-08-01T11:04:34;32.20;75.70
5344;DHT22;2694;48.950;8.970;2022-08-01T11:07:13;32.80;75.50
5344;DHT22;2694;48.950;8.970;2022-08-01T11:09:43;33.00;73.70
5344;DHT22;2694;48.950;8.970;2022-08-01T11:12:11;32.70;73.70
5344;DHT22;2694;48.950;8.970;2022-08-01T11:15:17;31.40;75.20
5344;DHT22;2694;48.950;8.970;2022-08-01T11:17:50;31.20;76.60
5344;DHT22;2694;48.950;8.970;2022-08-01T11:20:19;31.60;76.60
5344;DHT22;2694;48.950;8.970;2022-08-01T11:26:13;32.10;75.10
5344;DHT22;2694;48.950;8.970;2022-08-01T11:28:42;32.00;75.80
5344;DHT22;2694;48.950;8.970;2022-08-01T11:33:53;32.00;76.70
5344;DHT22;2694;48.950;8.970;2022-08-01T11:36:20;31.60;76.30
5344;DHT22;2694;48.950;8.970;2022-08-01T11:39:04;30.90;77.40
5344;DHT22;2694;48.950;8.970;2022-08-01T11:41:39;30.20;80.10
5344;DHT22;2694;48.950;8.970;2022-08-01T11:44:07;30.20;80.20
5344;DHT22;2694;48.950;8.970;2022-08-01T11:46:59;30.60;80.00
5344;DHT22;2694;48.950;8.970;2022-08-01T11:49:32;30.80;79.60
5344;DHT22;2694;48.950;8.970;2022-08-01T11:52:05;30.70;79.10
5344;DHT22;2694;48.950;8.970;2022-08-01T11:54:34;30.40;80.80
5344;DHT22;2694;48.950;8.970;2022-08-01T11:57:04;31.00;79.80
5344;DHT22;2694;48.950;8.970;2022-08-01T11:59:37;31.70;78.00
5344;DHT22;2694;48.950;8.970;2022-08-01T12:02:21;32.40;75.90
5344;DHT22;2694;48.950;8.970;2022-08-01T12:04:51;32.80;75.80
5344;DHT22;2694;48.950;8.970;2022-08-01T12:07:18;33.20;72.30
5344;DHT22;2694;48.950;8.970;2022-08-01T12:09:46;32.80;74.30
5344;DHT22;2694;48.950;8.970;2022-08-01T12:12:17;32.70;74.10
5344;DHT22;2694;48.950;8.970;2022-08-01T12:14:45;32.30;74.40
5344;DHT22;2694;48.950;8.970;2022-08-01T12:17:12;31.80;74.80
5344;DHT22;2694;48.950;8.970;2022-08-01T12:19:40;31.90;76.50
5344;DHT22;2694;48.950;8.970;2022-08-01T12:22:12;31.90;75.00
5344;DHT22;2694;48.950;8.970;2022-08-01T12:24:40;32.00;75.80
5344;DHT22;2694;48.950;8.970;2022-08-01T12:32:21;31.60;75.10
5344;DHT22;2694;48.950;8.970;2022-08-01T12:34:48;31.70;75.10
5344;DHT22;2694;48.950;8.970;2022-08-01T12:37:16;32.30;75.60
5344;DHT22;2694;48.950;8.970;2022-08-01T12:39:43;32.70;73.70
5344;DHT22;2694;48.950;8.970;2022-08-01T12:42:11;33.10;73.00
5344;DHT22;2694;48.950;8.970;2022-08-01T12:44:43;33.20;71.20
5344;DHT22;2694;48.950;8.970;2022-08-01T12:47:11;33.20;72.30
5344;DHT22;2694;48.950;8.970;2022-08-01T12:49:41;32.30;73.50
5344;DHT22;2694;48.950;8.970;2022-08-01T12:52:09;31.60;74.20
5344;DHT22;2694;48.950;8.970;2022-08-01T12:55:04;31.80;75.40
5344;DHT22;2694;48.950;8.970;2022-08-01T12:57:32;32.20;74.80
5344;DHT22;2694;48.950;8.970;2022-08-01T13:00:12;32.30;74.70
5344;DHT22;2694;48.950;8.970;2022-08-01T13:02:40;32.80;73.50
5344;DHT22;2694;48.950;8.970;2022-08-01T13:05:10;32.20;73.40
5344;DHT22;2694;48.950;8.970;2022-08-01T13:10:06;32.20;73.20
5344;DHT22;2694;48.950;8.970;2022-08-01T13:17:42;32.50;72.60
5344;DHT22;2694;48.950;8.970;2022-08-01T13:20:09;32.30;74.00
5344;DHT22;2694;48.950;8.970;2022-08-01T13:22:37;32.20;74.10
5344;DHT22;2694;48.950;8.970;2022-08-01T13:25:11;32.20;73.80
5344;DHT22;2694;48.950;8.970;2022-08-01T13:30:13;31.80;73.60
5344;DHT22;2694;48.950;8.970;2022-08-01T13:32:42;32.20;72.90
5344;DHT22;2694;48.950;8.970;2022-08-01T13:35:11;32.30;73.00
5344;DHT22;2694;48.950;8.970;2022-08-01T13:40:07;32.20;72.10
5344;DHT22;2694;48.950;8.970;2022-08-01T13:42:35;31.80;72.90
5344;DHT22;2694;48.950;8.970;2022-08-01T13:45:03;31.60;73.60
5344;DHT22;2694;48.950;8.970;2022-08-01T13:47:32;31.60;73.90
5344;DHT22;2694;48.950;8.970;2022-08-01T13:50:00;31.60;73.60
5344;DHT22;2694;48.950;8.970;2022-08-01T13:52:28;31.80;73.40
5344;DHT22;2694;48.950;8.970;2022-08-01T13:54:55;32.10;72.70
5344;DHT22;2694;48.950;8.970;2022-08-01T13:57:22;31.90;72.60
5344;DHT22;2694;48.950;8.970;2022-08-01T13:59:49;31.80;72.90
5344;DHT22;2694;48.950;8.970;2022-08-01T14:02:16;31.70;72.30
5344;DHT22;2694;48.950;8.970;2022-08-01T14:07:12;31.40;73.80
5344;DHT22;2694;48.950;8.970;2022-08-01T14:09:39;31.70;73.30
5344;DHT22;2694;48.950;8.970;2022-08-01T14:12:06;32.20;73.50
5344;DHT22;2694;48.950;8.970;2022-08-01T14:14:34;32.60;71.70
5344;DHT22;2694;48.950;8.970;2022-08-01T14:17:01;32.50;71.00
5344;DHT22;2694;48.950;8.970;2022-08-01T14:24:24;31.70;71.30
5344;DHT22;2694;48.950;8.970;2022-08-01T14:26:52;31.40;73.00
5344;DHT22;2694;48.950;8.970;2022-08-01T14:29:19;31.50;72.40
5344;DHT22;2694;48.950;8.970;2022-08-01T14:31:46;31.60;71.90
5344;DHT22;2694;48.950;8.970;2022-08-01T14:34:13;31.20;72.60
5344;DHT22;2694;48.950;8.970;2022-08-01T14:36:41;31.20;73.90
5344;DHT22;2694;48.950;8.970;2022-08-01T14:39:08;31.50;72.50
5344;DHT22;2694;48.950;8.970;2022-08-01T14:41:36;31.50;71.70
5344;DHT22;2694;48.950;8.970;2022-08-01T14:44:03;31.60;71.60
5344;DHT22;2694;48.950;8.970;2022-08-01T14:46:30;31.40;71.40
5344;DHT22;2694;48.950;8.970;2022-08-01T14:48:57;31.40;71.90
5344;DHT22;2694;48.950;8.970;2022-08-01T14:53:51;31.00;72.60
5344;DHT22;2694;48.950;8.970;2022-08-01T14:56:18;30.90;72.90
5344;DHT22;2694;48.950;8.970;2022-08-01T14:58:46;30.70;73.00
5344;DHT22;2694;48.950;8.970;2022-08-01T15:01:13;31.00;73.70
5344;DHT22;2694;48.950;8.970;2022-08-01T15:03:40;31.00;72.10
5344;DHT22;2694;48.950;8.970;2022-08-01T15:06:07;31.10;72.90
5344;DHT22;2694;48.950;8.970;2022-08-01T15:08:36;31.00;72.20
5344;DHT22;2694;48.950;8.970;2022-08-01T15:11:03;31.20;72.60
5344;DHT22;2694;48.950;8.970;2022-08-01T15:13:30;31.30;72.60
5344;DHT22;2694;48.950;8.970;2022-08-01T15:15:59;31.20;71.40
5344;DHT22;2694;48.950;8.970;2022-08-01T15:18:26;31.10;71.30
5344;DHT22;2694;48.950;8.970;2022-08-01T15:20:53;30.90;71.30
5344;DHT22;2694;48.950;8.970;2022-08-01T15:23:20;30.50;72.00
5344;DHT22;2694;48.950;8.970;2022-08-01T15:25:47;30.20;73.00
5344;DHT22;2694;48.950;8.970;2022-08-01T15:28:14;29.90;73.80
5344;DHT22;2694;48.950;8.970;2022-08-01T15:30:41;29.70;74.30
5344;DHT22;2694;48.950;8.970;2022-08-01T15:33:09;29.40;73.90
5344;DHT22;2694;48.950;8.970;2022-08-01T15:35:35;29.30;75.10
5344;DHT22;2694;48.950;8.970;2022-08-01T15:40:29;29.50;74.90
5344;DHT22;2694;48.950;8.970;2022-08-01T15:42:59;29.70;75.00
5344;DHT22;2694;48.950;8.970;2022-08-01T15:45:26;29.80;74.80
5344;DHT22;2694;48.950;8.970;2022-08-01T15:47:54;29.90;74.50
5344;DHT22;2694;48.950;8.970;2022-08-01T15:50:22;30.00;74.60
5344;DHT22;2694;48.950;8.970;2022-08-01T15:52:49;30.00;75.20
5344;DHT22;2694;48.950;8.970;2022-08-01T15:55:16;29.80;74.30
5344;DHT22;2694;48.950;8.970;2022-08-01T15:57:43;29.70;75.20
5344;DHT22;2694;48.950;8.970;2022-08-01T16:00:10;29.40;74.90
5344;DHT22;2694;48.950;8.970;2022-08-01T16:02:37;29.20;75.40
5344;DHT22;2694;48.950;8.970;2022-08-01T16:05:05;29.20;76.10
5344;DHT22;2694;48.950;8.970;2022-08-01T16:07:33;29.20;75.80
5344;DHT22;2694;48.950;8.970;2022-08-01T16:10:00;29.20;76.00
5344;DHT22;2694;48.950;8.970;2022-08-01T16:14:55;29.00;76.30
5344;DHT22;2694;48.950;8.970;2022-08-01T16:19:49;28.90;76.80
5344;DHT22;2694;48.950;8.970;2022-08-01T16:22:17;28.90;76.60
5344;DHT22;2694;48.950;8.970;2022-08-01T16:24:45;28.90;76.90
5344;DHT22;2694;48.950;8.970;2022-08-01T16:27:11;28.80;77.00
5344;DHT22;2694;48.950;8.970;2022-08-01T16:29:38;28.90;77.50
5344;DHT22;2694;48.950;8.970;2022-08-01T16:34:32;28.60;77.80
5344;DHT22;2694;48.950;8.970;2022-08-01T16:36:59;28.40;78.10
5344;DHT22;2694;48.950;8.970;2022-08-01T16:39:26;28.30;78.20
5344;DHT22;2694;48.950;8.970;2022-08-01T16:41:56;28.30;78.40
5344;DHT22;2694;48.950;8.970;2022-08-01T16:44:23;28.10;78.60
5344;DHT22;2694;48.950;8.970;2022-08-01T16:46:49;28.10;78.80
5344;DHT22;2694;48.950;8.970;2022-08-01T16:49:16;28.10;79.00
5344;DHT22;2694;48.950;8.970;2022-08-01T16:51:43;28.00;79.30
5344;DHT22;2694;48.950;8.970;2022-08-01T16:54:10;27.90;79.60
5344;DHT22;2694;48.950;8.970;2022-08-01T16:56:36;27.90;85.00
5344;DHT22;2694;48.950;8.970;2022-08-01T16:59:04;27.60;85.80
5344;DHT22;2694;48.950;8.970;2022-08-01T17:01:31;27.60;84.50
5344;DHT22;2694;48.950;8.970;2022-08-01T17:03:59;27.60;83.60
5344;DHT22;2694;48.950;8.970;2022-08-01T17:06:26;27.50;82.40
5344;DHT22;2694;48.950;8.970;2022-08-01T17:08:53;27.50;82.80
5344;DHT22;2694;48.950;8.970;2022-08-01T17:11:20;27.50;83.30
5344;DHT22;2694;48.950;8.970;2022-08-01T17:13:47;27.50;83.20
5344;DHT22;2694;48.950;8.970;2022-08-01T17:16:16;27.50;83.30
5344;DHT22;2694;48.950;8.970;2022-08-01T17:18:44;27.50;83.50
5344;DHT22;2694;48.950;8.970;2022-08-01T17:21:11;27.40;83.60
5344;DHT22;2694;48.950;8.970;2022-08-01T17:23:38;27.30;83.70
5344;DHT22;2694;48.950;8.970;2022-08-01T17:26:05;27.20;84.50
5344;DHT22;2694;48.950;8.970;2022-08-01T17:28:31;27.20;84.70
5344;DHT22;2694;48.950;8.970;2022-08-01T17:33:27;27.00;85.00
5344;DHT22;2694;48.950;8.970;2022-08-01T17:35:53;26.90;85.30
5344;DHT22;2694;48.950;8.970;2022-08-01T17:38:20;26.90;85.80
5344;DHT22;2694;48.950;8.970;2022-08-01T17:40:47;26.80;86.00
5344;DHT22;2694;48.950;8.970;2022-08-01T17:43:14;26.80;86.20
5344;DHT22;2694;48.950;8.970;2022-08-01T17:45:41;26.80;86.50
5344;DHT22;2694;48.950;8.970;2022-08-01T17:48:09;26.80;86.60
5344;DHT22;2694;48.950;8.970;2022-08-01T17:53:09;26.70;86.90
5344;DHT22;2694;48.950;8.970;2022-08-01T17:55:36;26.60;87.20
5344;DHT22;2694;48.950;8.970;2022-08-01T17:58:06;26.60;87.00
5344;DHT22;2694;48.950;8.970;2022-08-01T18:00:33;26.40;87.20
5344;DHT22;2694;48.950;8.970;2022-08-01T18:03:01;26.40;87.40
5344;DHT22;2694;48.950;8.970;2022-08-01T18:05:28;26.40;87.50
5344;DHT22;2694;48.950;8.970;2022-08-01T18:07:56;26.40;87.70
5344;DHT22;2694;48.950;8.970;2022-08-01T18:10:24;26.30;87.60
5344;DHT22;2694;48.950;8.970;2022-08-01T18:12:51;26.30;87.70
5344;DHT22;2694;48.950;8.970;2022-08-01T18:15:18;26.30;87.20
5344;DHT22;2694;48.950;8.970;2022-08-01T18:17:45;26.20;87.30
5344;DHT22;2694;48.950;8.970;2022-08-01T18:20:12;26.20;87.10
5344;DHT22;2694;48.950;8.970;2022-08-01T18:22:39;26.20;87.20
5344;DHT22;2694;48.950;8.970;2022-08-01T18:25:08;26.10;87.00
5344;DHT22;2694;48.950;8.970;2022-08-01T18:27:35;26.10;87.20
5344;DHT22;2694;48.950;8.970;2022-08-01T18:30:02;26.00;87.60
5344;DHT22;2694;48.950;8.970;2022-08-01T18:32:29;26.00;87.60
5344;DHT22;2694;48.950;8.970;2022-08-01T18:34:56;25.90;87.70
5344;DHT22;2694;48.950;8.970;2022-08-01T18:37:23;25.90;87.80
5344;DHT22;2694;48.950;8.970;2022-08-01T18:39:50;25.90;88.20
5344;DHT22;2694;48.950;8.970;2022-08-01T18:42:18;25.90;88.30